Time;durP1;ratioP1;P1;durP2;ratioP2;P2;SDS_P1;SDS_P2;PMS_P1;PMS_P2;Temp;Humidity;BMP_temperature;BMP_pressure;BME280_temperature;BME280_humidity;BME280_pressure;Samples;Min_cycle;Max_cycle;Signal;HPM_P1;HPM_P2
2023/04/25 00:00:18;;;;;;;4.38;3.15;;;;;;;;;;5061754;28;20025;-80
2023/04/25 00:02:44;;;;;;;10.27;4.50;;;;;;;;;;5057527;28;20033;-79
2023/04/25 00:05:10;;;;;;;6.05;4.07;;;;;;;;;;5056146;28;20036;-79
2023/04/25 00:07:35;;;;;;;6.85;3.80;;;;;;;;;;5057035;28;20025;-79
2023/04/25 00:10:01;;;;;;;5.03;2.97;;;;;;;;;;5056635;28;20083;-80
2023/04/25 00:12:28;;;;;;;6.57;3.08;;;;;;;;;;5022814;28;20112;-79
2023/04/25 00:14:56;;;;;;;8.10;4.35;;;;;;;;;;5058914;28;20104;-79
2023/04/25 00:17:24;;;;;;;6.97;3.25;;;;;;;;;;5056788;28;20064;-80
2023/04/25 00:19:50;;;;;;;9.18;3.40;;;;;;;;;;5056671;28;20021;-81
2023/04/25 00:22:15;;;;;;;15.57;4.40;;;;;;;;;;5051480;28;20043;-79
2023/04/25 00:24:41;;;;;;;4.40;2.88;;;;;;;;;;5056505;28;20409;-80
2023/04/25 00:27:06;;;;;;;5.20;3.53;;;;;;;;;;5056252;28;20024;-79
2023/04/25 00:29:32;;;;;;;7.18;4.20;;;;;;;;;;5056018;28;20029;-80
2023/04/25 00:31:57;;;;;;;3.97;2.70;;;;;;;;;;5056909;28;20033;-79
2023/04/25 00:34:22;;;;;;;9.80;4.10;;;;;;;;;;5061083;28;20009;-79
2023/04/25 00:36:48;;;;;;;8.75;4.28;;;;;;;;;;5059929;28;20028;-80
2023/04/25 00:39:13;;;;;;;9.45;4.13;;;;;;;;;;5058673;28;20088;-81
2023/04/25 00:41:39;;;;;;;5.85;3.05;;;;;;;;;;5057091;28;20426;-80
2023/04/25 00:44:04;;;;;;;5.90;3.10;;;;;;;;;;5038048;28;20039;-79
2023/04/25 00:46:31;;;;;;;9.65;3.88;;;;;;;;;;5055970;28;20060;-79
2023/04/25 00:48:56;;;;;;;5.35;2.42;;;;;;;;;;5056069;28;20033;-80
2023/04/25 00:51:21;;;;;;;8.38;4.53;;;;;;;;;;5055727;28;20041;-80
2023/04/25 00:53:48;;;;;;;7.38;3.92;;;;;;;;;;5056094;28;20082;-79
2023/04/25 00:56:14;;;;;;;5.40;3.72;;;;;;;;;;5043252;28;20043;-80
2023/04/25 00:58:40;;;;;;;7.75;4.15;;;;;;;;;;5054940;28;20074;-81
2023/04/25 01:01:06;;;;;;;6.65;3.13;;;;;;;;;;5037465;28;20553;-80
2023/04/25 01:03:32;;;;;;;8.52;4.28;;;;;;;;;;5054595;28;20029;-80
2023/04/25 01:05:58;;;;;;;12.55;5.15;;;;;;;;;;5037075;28;20090;-80
2023/04/25 01:08:24;;;;;;;6.22;1.77;;;;;;;;;;5053841;28;20454;-80
2023/04/25 01:10:49;;;;;;;9.57;3.75;;;;;;;;;;5054312;28;20025;-79
2023/04/25 01:13:15;;;;;;;6.32;4.15;;;;;;;;;;5056314;28;20032;-80
2023/04/25 01:15:40;;;;;;;9.85;3.45;;;;;;;;;;5055041;28;20029;-80
2023/04/25 01:18:06;;;;;;;7.10;3.55;;;;;;;;;;5061113;28;20370;-81
2023/04/25 01:20:32;;;;;;;8.95;4.80;;;;;;;;;;5055566;28;20024;-81
2023/04/25 01:22:57;;;;;;;5.82;2.90;;;;;;;;;;5035065;28;20028;-80
2023/04/25 01:25:23;;;;;;;6.38;4.00;;;;;;;;;;5055511;28;20466;-81
2023/04/25 01:27:48;;;;;;;5.30;3.40;;;;;;;;;;5053810;28;20025;-81
2023/04/25 01:30:14;;;;;;;5.22;3.70;;;;;;;;;;5054221;28;20036;-80
2023/04/25 01:32:40;;;;;;;7.78;3.45;;;;;;;;;;5055705;28;20451;-79
2023/04/25 01:35:10;;;;;;;9.55;4.93;;;;;;;;;;5057019;28;20047;-80
2023/04/25 01:37:37;;;;;;;15.68;4.45;;;;;;;;;;5059327;28;20025;-80
2023/04/25 01:40:05;;;;;;;7.57;3.58;;;;;;;;;;5053867;28;20036;-80
2023/04/25 01:42:31;;;;;;;6.38;3.20;;;;;;;;;;5053997;28;20326;-80
2023/04/25 01:44:56;;;;;;;6.53;3.03;;;;;;;;;;5052895;28;20029;-80
2023/04/25 01:47:21;;;;;;;7.60;3.25;;;;;;;;;;5054714;28;20017;-80
2023/04/25 01:49:47;;;;;;;11.48;3.58;;;;;;;;;;5055372;28;20017;-80
2023/04/25 01:52:12;;;;;;;9.38;3.88;;;;;;;;;;5059339;28;20095;-81
2023/04/25 01:54:38;;;;;;;9.23;4.32;;;;;;;;;;5056373;28;20493;-80
2023/04/25 01:57:03;;;;;;;5.95;3.58;;;;;;;;;;5056316;28;20028;-80
2023/04/25 01:59:29;;;;;;;10.75;4.30;;;;;;;;;;5061062;28;20041;-80
2023/04/25 02:01:54;;;;;;;6.90;3.45;;;;;;;;;;5021608;28;20036;-80
2023/04/25 02:04:20;;;;;;;5.03;3.63;;;;;;;;;;5053340;28;20037;-80
2023/04/25 02:06:45;;;;;;;7.18;3.33;;;;;;;;;;5053394;28;20116;-81
2023/04/25 02:09:12;;;;;;;8.13;3.10;;;;;;;;;;5053031;28;20045;-80
2023/04/25 02:11:38;;;;;;;7.03;3.25;;;;;;;;;;5054876;28;20104;-80
2023/04/25 02:14:03;;;;;;;7.80;4.32;;;;;;;;;;5055029;28;20082;-81
2023/04/25 02:16:30;;;;;;;8.10;3.97;;;;;;;;;;5054858;28;20386;-80
2023/04/25 02:18:55;;;;;;;11.20;5.00;;;;;;;;;;5054361;28;20032;-80
2023/04/25 02:21:21;;;;;;;10.55;3.88;;;;;;;;;;5056433;28;20036;-80
2023/04/25 02:23:48;;;;;;;6.47;4.18;;;;;;;;;;5053126;28;20365;-80
2023/04/25 02:26:14;;;;;;;10.05;4.13;;;;;;;;;;5035313;28;20033;-80
2023/04/25 02:28:39;;;;;;;6.07;4.43;;;;;;;;;;5019809;28;20040;-79
2023/04/25 02:31:05;;;;;;;9.23;4.03;;;;;;;;;;5037580;28;20028;-81
2023/04/25 02:33:31;;;;;;;7.78;2.90;;;;;;;;;;5054682;28;20469;-81
2023/04/25 02:35:56;;;;;;;9.30;5.03;;;;;;;;;;5036145;28;20451;-80
2023/04/25 02:38:21;;;;;;;6.78;3.67;;;;;;;;;;5053992;28;20040;-80
2023/04/25 02:40:47;;;;;;;5.68;4.40;;;;;;;;;;5055063;28;20070;-80
2023/04/25 02:43:12;;;;;;;6.63;3.33;;;;;;;;;;5041434;28;21018;-80
2023/04/25 02:45:38;;;;;;;9.98;5.07;;;;;;;;;;5054051;28;20032;-80
2023/04/25 02:48:03;;;;;;;14.40;7.28;;;;;;;;;;5053848;28;20037;-80
2023/04/25 02:50:28;;;;;;;7.45;5.10;;;;;;;;;;5054876;28;20029;-80
2023/04/25 02:52:54;;;;;;;6.45;3.13;;;;;;;;;;5036403;28;20106;-81
2023/04/25 02:55:20;;;;;;;9.43;5.30;;;;;;;;;;5054045;28;20029;-80
2023/04/25 02:57:45;;;;;;;8.77;4.13;;;;;;;;;;5059196;28;20028;-80
2023/04/25 03:00:13;;;;;;;9.50;4.50;;;;;;;;;;5059749;28;20017;-80
2023/04/25 03:02:39;;;;;;;6.78;4.38;;;;;;;;;;5044372;28;20032;-80
2023/04/25 03:05:05;;;;;;;7.88;2.92;;;;;;;;;;5060854;28;20033;-80
2023/04/25 03:07:31;;;;;;;7.75;3.90;;;;;;;;;;5042496;28;20079;-80
2023/04/25 03:09:56;;;;;;;7.55;4.20;;;;;;;;;;5061337;28;20029;-80
2023/04/25 03:12:22;;;;;;;14.60;7.35;;;;;;;;;;5042484;28;20146;-82
2023/04/25 03:14:47;;;;;;;8.93;6.18;;;;;;;;;;5042793;28;20033;-81
2023/04/25 03:17:12;;;;;;;9.40;5.68;;;;;;;;;;5060438;28;20032;-80
2023/04/25 03:19:38;;;;;;;12.32;4.55;;;;;;;;;;5060345;28;20028;-81
2023/04/25 03:22:03;;;;;;;9.13;4.35;;;;;;;;;;5060107;28;20358;-80
2023/04/25 03:24:29;;;;;;;12.68;5.80;;;;;;;;;;5070377;28;20044;-80
2023/04/25 03:26:54;;;;;;;7.90;4.15;;;;;;;;;;5056866;28;20044;-80
2023/04/25 03:29:24;;;;;;;4.70;3.00;;;;;;;;;;5061504;28;20047;-80
2023/04/25 03:31:49;;;;;;;7.90;4.70;;;;;;;;;;5060960;28;20378;-81
2023/04/25 03:34:15;;;;;;;5.88;3.90;;;;;;;;;;5060397;28;20058;-80
2023/04/25 03:36:40;;;;;;;6.03;3.55;;;;;;;;;;5060165;28;20432;-80
2023/04/25 03:39:06;;;;;;;10.15;4.32;;;;;;;;;;5060029;28;20036;-81
2023/04/25 03:41:31;;;;;;;6.25;3.70;;;;;;;;;;5060450;28;20086;-81
2023/04/25 03:43:56;;;;;;;9.85;5.07;;;;;;;;;;5060527;28;20051;-79
2023/04/25 03:46:22;;;;;;;11.95;4.18;;;;;;;;;;5059184;28;20354;-79
2023/04/25 03:48:47;;;;;;;6.78;3.35;;;;;;;;;;5042963;28;20485;-80
2023/04/25 03:51:14;;;;;;;10.98;4.70;;;;;;;;;;5061166;28;20095;-80
2023/04/25 03:53:39;;;;;;;10.90;5.18;;;;;;;;;;5058887;28;20041;-80
2023/04/25 03:56:05;;;;;;;6.68;3.67;;;;;;;;;;5060518;28;20116;-80
2023/04/25 03:58:30;;;;;;;8.38;3.65;;;;;;;;;;5060049;28;20068;-80
2023/04/25 04:00:56;;;;;;;6.13;3.15;;;;;;;;;;5041929;28;20056;-81
2023/04/25 04:03:21;;;;;;;4.70;2.90;;;;;;;;;;5060204;28;20395;-80
2023/04/25 04:05:47;;;;;;;6.47;3.05;;;;;;;;;;5062514;28;20112;-81
2023/04/25 04:08:12;;;;;;;10.00;5.22;;;;;;;;;;5059011;28;20370;-80
2023/04/25 04:10:38;;;;;;;7.00;3.45;;;;;;;;;;5057687;28;20072;-80
2023/04/25 04:13:03;;;;;;;8.68;4.18;;;;;;;;;;5055309;28;20033;-80
2023/04/25 04:15:29;;;;;;;10.18;4.38;;;;;;;;;;5055589;28;20068;-84
2023/04/25 04:17:54;;;;;;;8.00;4.78;;;;;;;;;;5055294;28;20112;-83
2023/04/25 04:20:20;;;;;;;9.30;4.63;;;;;;;;;;5055320;28;20028;-83
2023/04/25 04:22:46;;;;;;;8.98;4.35;;;;;;;;;;5056893;28;20041;-83
2023/04/25 04:25:12;;;;;;;14.10;5.18;;;;;;;;;;5040256;28;20032;-83
2023/04/25 04:27:38;;;;;;;10.60;6.03;;;;;;;;;;5070523;28;20033;-84
2023/04/25 04:30:05;;;;;;;3.90;3.10;;;;;;;;;;5048629;28;20409;-83
2023/04/25 04:32:32;;;;;;;12.23;4.72;;;;;;;;;;5056938;28;20036;-80
2023/04/25 04:34:57;;;;;;;13.70;4.72;;;;;;;;;;5056393;28;20469;-79
2023/04/25 04:37:23;;;;;;;5.40;2.55;;;;;;;;;;5038758;28;20033;-79
2023/04/25 04:39:50;;;;;;;7.85;3.83;;;;;;;;;;5056451;28;20123;-79
2023/04/25 04:42:16;;;;;;;6.30;3.35;;;;;;;;;;5055577;28;20045;-79
2023/04/25 04:44:44;;;;;;;8.50;4.45;;;;;;;;;;5064638;28;20021;-78
2023/04/25 04:47:10;;;;;;;6.55;4.10;;;;;;;;;;5022896;28;20028;-81
2023/04/25 04:49:51;;;;;;;7.65;4.78;;;;;;;;;;5065317;28;20061;-80
2023/04/25 04:52:17;;;;;;;7.20;4.15;;;;;;;;;;5038313;28;20438;-80
2023/04/25 04:54:44;;;;;;;10.20;5.32;;;;;;;;;;5051822;28;20119;-80
2023/04/25 04:57:10;;;;;;;17.15;7.20;;;;;;;;;;5033915;28;20672;-80
2023/04/25 05:00:04;;;;;;;11.70;4.35;;;;;;;;;;5016785;28;20898;-80
2023/04/25 05:02:50;;;;;;;8.13;4.57;;;;;;;;;;5031997;28;20045;-81
2023/04/25 05:05:26;;;;;;;4.20;2.85;;;;;;;;;;5036366;28;20144;-80
2023/04/25 05:07:55;;;;;;;8.95;3.72;;;;;;;;;;5027146;28;20029;-81
2023/04/25 05:10:21;;;;;;;18.80;4.75;;;;;;;;;;5032315;28;20029;-79
2023/04/25 05:13:27;;;;;;;6.03;3.90;;;;;;;;;;5051383;28;20110;-81
2023/04/25 05:15:52;;;;;;;8.40;3.97;;;;;;;;;;5044550;28;20123;-78
2023/04/25 05:18:18;;;;;;;3.15;2.47;;;;;;;;;;5057432;28;20085;-86
2023/04/25 05:20:43;;;;;;;9.68;3.95;;;;;;;;;;5048844;28;20033;-85
2023/04/25 05:23:08;;;;;;;8.00;4.18;;;;;;;;;;5036888;28;20091;-85
2023/04/25 05:25:34;;;;;;;4.68;3.55;;;;;;;;;;5055992;28;20367;-85
2023/04/25 05:28:00;;;;;;;4.97;3.67;;;;;;;;;;5050174;28;20028;-81
2023/04/25 05:30:25;;;;;;;6.95;3.15;;;;;;;;;;5034860;28;20108;-85
2023/04/25 05:32:50;;;;;;;11.25;3.75;;;;;;;;;;5035322;28;20086;-83
2023/04/25 05:35:16;;;;;;;8.55;4.88;;;;;;;;;;5048629;28;20090;-84
2023/04/25 05:37:42;;;;;;;8.73;4.68;;;;;;;;;;5048926;28;20047;-84
2023/04/25 05:40:08;;;;;;;6.25;2.38;;;;;;;;;;5031544;28;20410;-84
2023/04/25 05:42:34;;;;;;;5.57;2.63;;;;;;;;;;5058056;28;20028;-85
2023/04/25 05:45:00;;;;;;;5.30;2.90;;;;;;;;;;5019793;28;20021;-83
2023/04/25 05:47:26;;;;;;;4.43;2.55;;;;;;;;;;5034549;28;20060;-86
2023/04/25 05:49:52;;;;;;;5.47;2.83;;;;;;;;;;5021199;28;20031;-88
2023/04/25 05:55:47;;;;;;;2.45;1.80;;;;;;;;;;5054084;22;20500;-83
2023/04/25 05:58:44;;;;;;;3.38;1.52;;;;;;;;;;5031738;28;20067;-84
2023/04/25 06:01:18;;;;;;;1.35;1.23;;;;;;;;;;5034822;28;20055;-83
2023/04/25 06:03:51;;;;;;;3.45;1.58;;;;;;;;;;5035284;28;20091;-86
2023/04/25 06:06:16;;;;;;;4.63;2.70;;;;;;;;;;5034023;28;20156;-84
2023/04/25 06:08:42;;;;;;;3.28;2.13;;;;;;;;;;5049882;28;20506;-83
2023/04/25 06:11:07;;;;;;;3.50;1.95;;;;;;;;;;5053161;28;20020;-84
2023/04/25 06:13:33;;;;;;;5.47;2.28;;;;;;;;;;5043881;28;20092;-83
2023/04/25 06:15:58;;;;;;;4.57;2.17;;;;;;;;;;5036073;28;20029;-84
2023/04/25 06:18:24;;;;;;;5.82;2.95;;;;;;;;;;5029919;28;20033;-85
2023/04/25 06:20:52;;;;;;;3.95;1.55;;;;;;;;;;5049981;28;20093;-84
2023/04/25 06:23:18;;;;;;;3.85;2.13;;;;;;;;;;5054255;28;20036;-84
2023/04/25 06:25:43;;;;;;;2.20;1.65;;;;;;;;;;5062575;28;20056;-83
2023/04/25 06:28:09;;;;;;;4.20;1.40;;;;;;;;;;5031271;28;20029;-83
2023/04/25 06:30:35;;;;;;;2.70;1.60;;;;;;;;;;5051514;28;20371;-85
2023/04/25 06:35:28;;;;;;;2.03;1.30;;;;;;;;;;5064803;22;20053;-83
2023/04/25 06:37:54;;;;;;;2.60;1.55;;;;;;;;;;5002899;28;20036;-83
2023/04/25 06:40:31;;;;;;;3.38;2.45;;;;;;;;;;5042485;28;20053;-85
2023/04/25 06:43:00;;;;;;;1.48;1.15;;;;;;;;;;5015082;28;20113;-86
2023/04/25 06:45:27;;;;;;;1.40;1.23;;;;;;;;;;5030081;28;20029;-86
2023/04/25 06:47:53;;;;;;;2.30;1.63;;;;;;;;;;5054714;28;20263;-84
2023/04/25 06:50:19;;;;;;;4.15;1.88;;;;;;;;;;5040882;28;20029;-88
2023/04/25 06:52:48;;;;;;;4.88;1.23;;;;;;;;;;5025658;28;20498;-87
2023/04/25 06:55:13;;;;;;;1.13;0.80;;;;;;;;;;5054703;28;20041;-85
2023/04/25 06:57:44;;;;;;;3.08;1.05;;;;;;;;;;5059214;28;20036;-84
2023/04/25 07:00:10;;;;;;;0.90;0.82;;;;;;;;;;5045571;28;20210;-86
2023/04/25 07:02:40;;;;;;;1.27;0.75;;;;;;;;;;5041479;28;20031;-88
2023/04/25 07:05:08;;;;;;;0.65;0.60;;;;;;;;;;5036230;28;20109;-85
2023/04/25 07:08:03;;;;;;;1.65;0.55;;;;;;;;;;5035608;28;20087;-87
2023/04/25 07:11:18;;;;;;;0.90;0.63;;;;;;;;;;5031585;28;20064;-85
2023/04/25 07:14:02;;;;;;;1.15;0.57;;;;;;;;;;5037307;28;20029;-88
2023/04/25 07:16:31;;;;;;;0.95;0.70;;;;;;;;;;5022325;28;20025;-83
2023/04/25 07:18:56;;;;;;;0.55;0.55;;;;;;;;;;5059396;28;20556;-85
2023/04/25 07:21:25;;;;;;;1.27;0.80;;;;;;;;;;5061828;28;20060;-85
2023/04/25 07:23:51;;;;;;;0.40;0.40;;;;;;;;;;5036974;28;20047;-87
2023/04/25 07:26:16;;;;;;;1.10;0.30;;;;;;;;;;5038113;28;20025;-82
2023/04/25 07:28:43;;;;;;;4.15;0.60;;;;;;;;;;5023443;28;20035;-87
2023/04/25 07:31:21;;;;;;;2.58;0.75;;;;;;;;;;5058477;28;20024;-84
2023/04/25 07:33:47;;;;;;;1.13;0.60;;;;;;;;;;5042671;28;20045;-85
2023/04/25 07:36:12;;;;;;;1.52;1.23;;;;;;;;;;5058780;28;20295;-88
2023/04/25 07:38:44;;;;;;;1.45;1.10;;;;;;;;;;5059153;28;20029;-86
2023/04/25 07:41:10;;;;;;;2.65;0.60;;;;;;;;;;5053888;28;20036;-86
2023/04/25 07:43:35;;;;;;;1.48;0.57;;;;;;;;;;5052248;28;20036;-87
2023/04/25 07:46:02;;;;;;;2.05;0.80;;;;;;;;;;5056013;28;20032;-86
2023/04/25 07:48:27;;;;;;;1.45;0.65;;;;;;;;;;5056488;28;20021;-85
2023/04/25 07:50:54;;;;;;;4.80;1.60;;;;;;;;;;5058423;28;20033;-86
2023/04/25 07:53:23;;;;;;;3.83;0.93;;;;;;;;;;5025277;28;20071;-85
2023/04/25 07:55:48;;;;;;;0.40;0.40;;;;;;;;;;5040105;28;20025;-85
2023/04/25 07:58:15;;;;;;;0.75;0.40;;;;;;;;;;5066499;28;20051;-86
2023/04/25 08:00:42;;;;;;;0.93;0.75;;;;;;;;;;5045983;28;20045;-84
2023/04/25 08:03:09;;;;;;;0.93;0.77;;;;;;;;;;5058481;28;20041;-85
2023/04/25 08:05:34;;;;;;;1.08;0.52;;;;;;;;;;5046602;28;20033;-86
2023/04/25 08:08:19;;;;;;;0.43;0.30;;;;;;;;;;5054635;28;20025;-84
2023/04/25 08:10:45;;;;;;;0.38;0.38;;;;;;;;;;5039755;28;20081;-86
2023/04/25 08:13:10;;;;;;;1.45;0.40;;;;;;;;;;5036526;28;20108;-85
2023/04/25 08:15:36;;;;;;;0.38;0.38;;;;;;;;;;5046194;28;20084;-84
2023/04/25 08:18:04;;;;;;;1.15;0.68;;;;;;;;;;5040610;28;20033;-83
2023/04/25 08:20:30;;;;;;;0.45;0.30;;;;;;;;;;5038801;28;20297;-85
2023/04/25 08:22:55;;;;;;;0.68;0.40;;;;;;;;;;5039200;28;20052;-85
2023/04/25 08:25:24;;;;;;;1.58;0.57;;;;;;;;;;5035996;28;20049;-85
2023/04/25 08:27:49;;;;;;;1.20;0.55;;;;;;;;;;5034211;28;20037;-85
2023/04/25 08:33:45;;;;;;;0.40;0.40;;;;;;;;;;5168597;22;20076;-86
2023/04/25 08:36:11;;;;;;;0.70;0.57;;;;;;;;;;5028612;28;20022;-85
2023/04/25 08:38:36;;;;;;;1.13;0.70;;;;;;;;;;5024391;28;20033;-85
2023/04/25 08:41:02;;;;;;;0.55;0.45;;;;;;;;;;5033490;28;20466;-82
2023/04/25 08:43:33;;;;;;;0.20;0.20;;;;;;;;;;5044536;28;20033;-84
2023/04/25 08:46:00;;;;;;;0.20;0.20;;;;;;;;;;5038940;28;20030;-86
2023/04/25 08:51:01;;;;;;;1.50;0.55;;;;;;;;;;5453300;22;20062;-82
2023/04/25 08:53:28;;;;;;;0.35;0.22;;;;;;;;;;5031779;28;20032;-81
2023/04/25 08:55:55;;;;;;;2.28;0.63;;;;;;;;;;4999422;28;20049;-80
2023/04/25 08:58:21;;;;;;;0.85;0.45;;;;;;;;;;5038315;28;20529;-82
2023/04/25 09:00:47;;;;;;;0.60;0.50;;;;;;;;;;5017377;28;20030;-81
2023/04/25 09:03:13;;;;;;;0.68;0.68;;;;;;;;;;5032012;28;20033;-77
2023/04/25 09:05:40;;;;;;;0.60;0.60;;;;;;;;;;5033382;28;20362;-77
2023/04/25 09:08:05;;;;;;;1.13;0.60;;;;;;;;;;5032166;28;20029;-77
2023/04/25 09:10:31;;;;;;;0.50;0.40;;;;;;;;;;5032434;28;20040;-76
2023/04/25 09:13:04;;;;;;;0.57;0.40;;;;;;;;;;5015045;28;20124;-77
2023/04/25 09:15:30;;;;;;;0.50;0.50;;;;;;;;;;5033351;28;20052;-76
2023/04/25 09:17:59;;;;;;;0.63;0.55;;;;;;;;;;5032959;28;20344;-78
2023/04/25 09:20:24;;;;;;;1.23;0.70;;;;;;;;;;5034335;28;20032;-77
2023/04/25 09:23:03;;;;;;;0.50;0.40;;;;;;;;;;5051779;28;20032;-76
2023/04/25 09:25:28;;;;;;;0.60;0.57;;;;;;;;;;5034863;28;20563;-77
2023/04/25 09:27:55;;;;;;;0.82;0.57;;;;;;;;;;5021063;28;20044;-75
2023/04/25 09:30:30;;;;;;;3.33;0.52;;;;;;;;;;5056900;28;20021;-78
2023/04/25 09:33:27;;;;;;;0.98;0.50;;;;;;;;;;5024594;28;20017;-75
2023/04/25 09:35:55;;;;;;;0.95;0.55;;;;;;;;;;5035460;28;20059;-78
2023/04/25 09:38:21;;;;;;;0.52;0.52;;;;;;;;;;5022603;28;20026;-76
2023/04/25 09:40:49;;;;;;;0.98;0.65;;;;;;;;;;5014830;28;20038;-74
2023/04/25 09:43:29;;;;;;;0.65;0.65;;;;;;;;;;5001542;28;20041;-77
2023/04/25 09:45:57;;;;;;;;;;;;;;;;;;5033021;28;20057;-76
2023/04/25 09:48:25;;;;;;;0.68;0.50;;;;;;;;;;5035376;28;19913;-76
2023/04/25 09:51:04;;;;;;;1.60;1.05;;;;;;;;;;5041978;28;20075;-76
2023/04/25 09:53:31;;;;;;;0.53;0.50;;;;;;;;;;5050074;28;20099;-76
2023/04/25 09:55:57;;;;;;;0.60;0.60;;;;;;;;;;5035120;28;20106;-76
2023/04/25 09:58:24;;;;;;;0.38;0.30;;;;;;;;;;5020043;28;20108;-75
2023/04/25 10:00:49;;;;;;;1.08;0.57;;;;;;;;;;5025503;28;20044;-74
2023/04/25 10:03:15;;;;;;;0.47;0.40;;;;;;;;;;5035736;28;20029;-75
2023/04/25 10:06:00;;;;;;;0.35;0.35;;;;;;;;;;5003897;28;20022;-76
2023/04/25 10:08:36;;;;;;;0.20;0.20;;;;;;;;;;5035261;28;20034;-76
2023/04/25 10:11:22;;;;;;;0.55;0.38;;;;;;;;;;5034807;28;20037;-76
2023/04/25 10:13:48;;;;;;;0.17;0.17;;;;;;;;;;5035651;28;20021;-77
2023/04/25 10:16:14;;;;;;;0.52;0.43;;;;;;;;;;5031663;28;20045;-74
2023/04/25 10:18:39;;;;;;;0.30;0.30;;;;;;;;;;5018197;28;20057;-75
2023/04/25 10:21:05;;;;;;;2.40;0.93;;;;;;;;;;5017201;28;20088;-76
2023/04/25 10:23:31;;;;;;;2.05;0.75;;;;;;;;;;5028266;28;20132;-78
2023/04/25 10:25:57;;;;;;;0.95;0.65;;;;;;;;;;5012875;28;20038;-76
2023/04/25 10:28:22;;;;;;;1.20;0.80;;;;;;;;;;5018689;28;20022;-78
2023/04/25 10:31:12;;;;;;;0.73;0.30;;;;;;;;;;5030867;28;20025;-79
2023/04/25 10:33:39;;;;;;;0.60;0.38;;;;;;;;;;5003052;28;20040;-81
2023/04/25 10:36:48;;;;;;;0.85;0.40;;;;;;;;;;5033492;28;20052;-83
2023/04/25 10:39:14;;;;;;;1.73;0.80;;;;;;;;;;4976240;28;20118;-81
2023/04/25 10:42:07;;;;;;;0.45;0.40;;;;;;;;;;4963911;28;20102;-81
2023/04/25 10:44:33;;;;;;;0.55;0.32;;;;;;;;;;5012770;28;20049;-81
2023/04/25 10:49:45;;;;;;;0.25;0.20;;;;;;;;;;5056977;22;20083;-81
2023/04/25 10:52:29;;;;;;;0.80;0.30;;;;;;;;;;5014421;28;20030;-80
2023/04/25 10:54:58;;;;;;;0.35;0.25;;;;;;;;;;5013434;28;20021;-82
2023/04/25 10:57:33;;;;;;;0.20;0.20;;;;;;;;;;5033089;28;20478;-81
2023/04/25 11:00:10;;;;;;;0.13;0.13;;;;;;;;;;5035143;28;20093;-82
2023/04/25 11:03:01;;;;;;;0.20;0.20;;;;;;;;;;5018256;28;20029;-82
2023/04/25 11:05:34;;;;;;;0.00;0.00;;;;;;;;;;5002043;28;20049;-82
2023/04/25 11:08:00;;;;;;;0.45;0.20;;;;;;;;;;5036079;28;20104;-82
2023/04/25 11:10:27;;;;;;;0.63;0.43;;;;;;;;;;5016395;28;20112;-81
2023/04/25 11:12:52;;;;;;;0.38;0.10;;;;;;;;;;5031643;28;20480;-82
2023/04/25 11:15:36;;;;;;;0.30;0.30;;;;;;;;;;5047006;28;20101;-83
2023/04/25 11:18:01;;;;;;;0.08;0.08;;;;;;;;;;5048246;28;20049;-81
2023/04/25 11:20:28;;;;;;;0.25;0.22;;;;;;;;;;5003729;28;20184;-81
2023/04/25 11:22:53;;;;;;;15.02;2.40;;;;;;;;;;5019748;28;20498;-81
2023/04/25 11:25:53;;;;;;;0.55;0.55;;;;;;;;;;5001356;28;20069;-83
2023/04/25 11:28:22;;;;;;;1.13;0.40;;;;;;;;;;5013791;28;20035;-83
2023/04/25 11:30:50;;;;;;;0.20;0.20;;;;;;;;;;5037456;28;20048;-81
2023/04/25 11:33:16;;;;;;;0.98;0.30;;;;;;;;;;5020126;28;20033;-81
2023/04/25 11:35:41;;;;;;;0.40;0.40;;;;;;;;;;5036771;28;20044;-81
2023/04/25 11:38:10;;;;;;;0.57;0.50;;;;;;;;;;5034965;28;20060;-81
2023/04/25 11:40:36;;;;;;;9.73;1.38;;;;;;;;;;5024712;28;20037;-81
2023/04/25 11:43:01;;;;;;;0.17;0.17;;;;;;;;;;5035008;28;20091;-81
2023/04/25 11:45:27;;;;;;;0.93;0.52;;;;;;;;;;5034075;28;20029;-81
2023/04/25 11:47:53;;;;;;;1.13;0.47;;;;;;;;;;5016934;28;20143;-81
2023/04/25 11:50:21;;;;;;;0.80;0.47;;;;;;;;;;5033424;28;20056;-80
2023/04/25 11:52:50;;;;;;;0.47;0.22;;;;;;;;;;5033369;28;20037;-81
2023/04/25 11:55:19;;;;;;;0.57;0.35;;;;;;;;;;5035567;28;20025;-81
2023/04/25 11:57:49;;;;;;;1.15;0.43;;;;;;;;;;5035118;28;20463;-80
2023/04/25 12:00:18;;;;;;;;;;;;;;;;;;5018261;28;20071;-79
2023/04/25 12:02:44;;;;;;;0.63;0.25;;;;;;;;;;5017267;28;19913;-80
2023/04/25 12:05:10;;;;;;;0.93;0.52;;;;;;;;;;5001466;28;20025;-81
2023/04/25 12:07:37;;;;;;;0.50;0.40;;;;;;;;;;4987956;28;20037;-80
2023/04/25 12:10:10;;;;;;;0.28;0.28;;;;;;;;;;4998015;28;20059;-81
2023/04/25 12:12:35;;;;;;;0.47;0.47;;;;;;;;;;4998765;28;20041;-81
2023/04/25 12:15:21;;;;;;;1.52;0.82;;;;;;;;;;4983457;28;20365;-80
2023/04/25 12:17:47;;;;;;;1.13;0.73;;;;;;;;;;4999923;28;20034;-81
2023/04/25 12:20:17;;;;;;;0.70;0.63;;;;;;;;;;4999600;28;20176;-80
2023/04/25 12:22:47;;;;;;;5.00;1.55;;;;;;;;;;5031048;28;20029;-80
2023/04/25 12:25:31;;;;;;;1.20;1.10;;;;;;;;;;5019856;28;20041;-80
2023/04/25 12:28:23;;;;;;;1.95;0.70;;;;;;;;;;5036511;28;20029;-80
2023/04/25 12:31:08;;;;;;;2.40;1.42;;;;;;;;;;5020451;28;20037;-80
2023/04/25 12:33:37;;;;;;;2.53;2.03;;;;;;;;;;4986427;28;20078;-79
2023/04/25 12:36:08;;;;;;;7.47;2.07;;;;;;;;;;5036175;28;20029;-81
2023/04/25 12:38:39;;;;;;;2.47;1.15;;;;;;;;;;5036738;28;20034;-80
2023/04/25 12:41:05;;;;;;;2.58;1.40;;;;;;;;;;5003268;28;20577;-80
2023/04/25 12:43:31;;;;;;;2.10;1.50;;;;;;;;;;5035097;28;20132;-81
2023/04/25 12:45:59;;;;;;;1.35;1.17;;;;;;;;;;4999094;28;20164;-80
2023/04/25 12:54:51;;;;;;;1.50;0.82;;;;;;;;;;4943608;28;20527;-79
2023/04/25 12:57:16;;;;;;;1.27;1.02;;;;;;;;;;5035691;28;20112;-79
2023/04/25 12:59:41;;;;;;;2.05;0.95;;;;;;;;;;5036115;28;20030;-80
2023/04/25 13:02:07;;;;;;;1.73;1.20;;;;;;;;;;5036011;28;20029;-80
2023/04/25 13:04:32;;;;;;;2.05;1.30;;;;;;;;;;5035754;28;20501;-80
2023/04/25 13:06:58;;;;;;;4.07;1.58;;;;;;;;;;5036062;28;20033;-80
2023/04/25 13:09:23;;;;;;;2.90;1.77;;;;;;;;;;5032522;28;20048;-81
2023/04/25 13:11:49;;;;;;;2.17;1.65;;;;;;;;;;5036495;28;20036;-80
2023/04/25 13:14:15;;;;;;;5.15;2.58;;;;;;;;;;5038890;28;20037;-80
2023/04/25 13:16:41;;;;;;;4.63;2.13;;;;;;;;;;5025518;28;20477;-78
2023/04/25 13:19:10;;;;;;;1.92;1.15;;;;;;;;;;5018127;28;20036;-80
2023/04/25 13:21:36;;;;;;;2.28;1.45;;;;;;;;;;5036234;28;20056;-80
2023/04/25 13:24:01;;;;;;;3.83;1.75;;;;;;;;;;5035875;28;20462;-79
2023/04/25 13:26:27;;;;;;;2.72;1.70;;;;;;;;;;5035706;28;20037;-79
2023/04/25 13:28:52;;;;;;;2.78;2.10;;;;;;;;;;5035626;28;20104;-80
2023/04/25 13:31:17;;;;;;;2.63;1.73;;;;;;;;;;5035014;28;20079;-80
2023/04/25 13:33:43;;;;;;;3.10;1.67;;;;;;;;;;5001876;28;20025;-82
2023/04/25 13:36:09;;;;;;;1.60;1.27;;;;;;;;;;5001242;28;20428;-80
2023/04/25 13:38:34;;;;;;;3.28;1.38;;;;;;;;;;5017987;28;20044;-79
2023/04/25 13:41:00;;;;;;;1.20;1.02;;;;;;;;;;5016938;28;20040;-79
2023/04/25 13:43:26;;;;;;;2.70;1.40;;;;;;;;;;5017884;28;20040;-81
2023/04/25 13:45:51;;;;;;;2.72;1.20;;;;;;;;;;5035230;28;20021;-80
2023/04/25 13:48:17;;;;;;;2.30;1.23;;;;;;;;;;4992315;28;20080;-81
2023/04/25 13:50:43;;;;;;;1.52;0.95;;;;;;;;;;5020566;28;20029;-81
2023/04/25 13:53:08;;;;;;;1.48;1.13;;;;;;;;;;5037367;28;20508;-81
2023/04/25 13:55:35;;;;;;;2.28;1.05;;;;;;;;;;5042076;28;20029;-80
2023/04/25 13:58:07;;;;;;;0.70;0.70;;;;;;;;;;5033520;28;20041;-80
2023/04/25 14:00:32;;;;;;;2.08;1.23;;;;;;;;;;5064857;28;20025;-80
2023/04/25 14:02:58;;;;;;;1.20;0.98;;;;;;;;;;5055881;28;20036;-80
2023/04/25 14:05:23;;;;;;;1.23;1.13;;;;;;;;;;5021094;28;20079;-80
2023/04/25 14:07:48;;;;;;;4.13;1.88;;;;;;;;;;5054680;28;20127;-80
2023/04/25 14:10:14;;;;;;;2.92;1.20;;;;;;;;;;5021821;28;20053;-80
2023/04/25 14:12:42;;;;;;;1.88;1.38;;;;;;;;;;5054788;28;20107;-79
2023/04/25 14:15:08;;;;;;;2.90;1.55;;;;;;;;;;5037541;28;20037;-80
2023/04/25 14:17:55;;;;;;;1.38;0.65;;;;;;;;;;5054993;28;20453;-80
2023/04/25 14:20:23;;;;;;;3.60;2.03;;;;;;;;;;5055688;28;20427;-81
2023/04/25 14:22:49;;;;;;;4.78;2.45;;;;;;;;;;5054618;28;20061;-81
2023/04/25 14:25:14;;;;;;;4.60;2.47;;;;;;;;;;5054785;28;20071;-80
2023/04/25 14:27:40;;;;;;;4.47;2.15;;;;;;;;;;5034337;28;20095;-81
2023/04/25 14:30:06;;;;;;;4.63;2.05;;;;;;;;;;5054557;28;20478;-81
2023/04/25 14:32:32;;;;;;;11.40;2.25;;;;;;;;;;5037402;28;20412;-81
2023/04/25 14:34:57;;;;;;;2.97;1.70;;;;;;;;;;5037965;28;20039;-80
2023/04/25 14:37:23;;;;;;;3.15;1.90;;;;;;;;;;5061688;28;20102;-81
2023/04/25 14:39:48;;;;;;;3.10;1.40;;;;;;;;;;5066733;28;20024;-80
2023/04/25 14:42:13;;;;;;;5.15;1.67;;;;;;;;;;5060028;28;20114;-80
2023/04/25 14:44:39;;;;;;;3.10;1.42;;;;;;;;;;5054620;28;20032;-80
2023/04/25 14:47:05;;;;;;;1.90;1.45;;;;;;;;;;5037073;28;20036;-81
2023/04/25 14:49:31;;;;;;;2.95;1.95;;;;;;;;;;5003828;28;20490;-81
2023/04/25 14:51:57;;;;;;;8.98;3.78;;;;;;;;;;5034333;28;20021;-80
2023/04/25 14:54:22;;;;;;;2.63;1.45;;;;;;;;;;5016833;28;20031;-81
2023/04/25 14:56:47;;;;;;;2.80;1.55;;;;;;;;;;5034120;28;20029;-82
2023/04/25 14:59:13;;;;;;;4.55;2.40;;;;;;;;;;5034217;28;20030;-82
2023/04/25 15:01:38;;;;;;;3.90;1.50;;;;;;;;;;5016999;28;20025;-80
2023/04/25 15:04:04;;;;;;;5.35;2.90;;;;;;;;;;5034060;28;20116;-81
2023/04/25 15:06:30;;;;;;;4.00;2.40;;;;;;;;;;5034055;28;20103;-81
2023/04/25 15:08:56;;;;;;;3.35;1.90;;;;;;;;;;5034189;28;20033;-81